createdAt,value
2023-03-27T00:00:17.062Z,1.97
2023-03-27T00:02:49.095Z,1.80
2023-03-27T00:05:22.845Z,1.50
2023-03-27T00:07:55.921Z,1.73
2023-03-27T00:10:26.883Z,1.67
2023-03-27T00:12:57.350Z,1.33
2023-03-27T00:15:27.387Z,1.80
2023-03-27T00:17:58.950Z,1.60
2023-03-27T00:20:31.573Z,1.90
2023-03-27T00:23:02.650Z,1.70
2023-03-27T00:25:33.257Z,1.60
2023-03-27T00:28:03.275Z,1.80
2023-03-27T00:30:34.424Z,1.90
2023-03-27T00:33:04.764Z,1.30
2023-03-27T00:35:37.553Z,1.73
2023-03-27T00:38:08.023Z,1.60
2023-03-27T00:40:37.969Z,3.60
2023-03-27T00:43:22.764Z,1.80
2023-03-27T00:45:55.701Z,1.00
2023-03-27T00:48:27.364Z,1.50
2023-03-27T00:51:01.494Z,1.60
2023-03-27T00:53:32.316Z,1.53
2023-03-27T00:56:04.605Z,1.43
2023-03-27T00:58:40.373Z,1.67
2023-03-27T01:01:12.953Z,1.90
2023-03-27T01:03:44.961Z,1.90
2023-03-27T01:06:18.825Z,1.60
2023-03-27T01:08:49.329Z,1.70
2023-03-27T01:11:29.798Z,1.60
2023-03-27T01:14:11.397Z,1.70
2023-03-27T01:16:49.680Z,1.70
2023-03-27T01:19:48.826Z,1.40
2023-03-27T01:22:46.301Z,1.40
2023-03-27T01:25:36.083Z,1.97
2023-03-27T01:28:19.837Z,1.43
2023-03-27T01:30:54.909Z,1.60
2023-03-27T01:33:42.575Z,1.47
2023-03-27T01:36:28.040Z,1.53
2023-03-27T01:39:20.562Z,2.10
2023-03-27T01:41:57.543Z,1.63
2023-03-27T01:44:42.964Z,1.80
2023-03-27T01:47:24.639Z,2.00
2023-03-27T01:49:58.884Z,2.20
2023-03-27T01:52:32.434Z,2.83
2023-03-27T01:55:10.128Z,1.87
2023-03-27T01:57:50.676Z,1.70
2023-03-27T02:00:25.384Z,2.53
2023-03-27T02:02:59.528Z,1.70
2023-03-27T02:05:35.152Z,1.50
2023-03-27T02:08:11.401Z,1.70
2023-03-27T02:10:48.933Z,1.53
2023-03-27T02:13:23.089Z,1.77
2023-03-27T02:15:53.895Z,1.73
2023-03-27T02:18:31.759Z,2.07
2023-03-27T02:21:02.591Z,1.70
2023-03-27T02:23:33.571Z,1.80
2023-03-27T02:26:06.384Z,1.77
2023-03-27T02:28:42.909Z,2.03
2023-03-27T02:31:34.831Z,1.77
2023-03-27T02:34:29.474Z,2.10
2023-03-27T02:37:06.892Z,1.73
2023-03-27T02:39:44.847Z,1.80
2023-03-27T02:42:23.872Z,1.90
2023-03-27T02:45:01.362Z,1.83
2023-03-27T02:47:37.362Z,2.13
2023-03-27T02:50:13.313Z,1.87
2023-03-27T02:52:47.043Z,1.77
2023-03-27T02:55:21.126Z,1.67
2023-03-27T02:57:59.693Z,1.87
2023-03-27T03:00:30.596Z,2.30
2023-03-27T03:03:08.669Z,1.90
2023-03-27T03:05:41.392Z,1.77
2023-03-27T03:08:11.586Z,2.83
2023-03-27T03:10:46.694Z,1.97
2023-03-27T03:13:20.819Z,1.80
2023-03-27T03:15:50.918Z,1.50
2023-03-27T03:18:20.752Z,2.20
2023-03-27T03:20:50.659Z,2.03
2023-03-27T03:23:20.473Z,2.00
2023-03-27T03:25:52.846Z,1.90
2023-03-27T03:28:26.234Z,2.60
2023-03-27T03:30:59.257Z,2.17
2023-03-27T03:33:30.300Z,2.10
2023-03-27T03:36:02.393Z,2.70
2023-03-27T03:38:38.210Z,2.03
2023-03-27T03:41:09.653Z,2.30
2023-03-27T03:43:42.106Z,1.83
2023-03-27T03:46:12.026Z,2.37
2023-03-27T03:48:41.932Z,2.17
2023-03-27T03:51:11.984Z,2.17
2023-03-27T03:53:41.859Z,1.93
2023-03-27T03:56:12.278Z,1.87
2023-03-27T03:58:44.734Z,1.70
2023-03-27T04:01:14.535Z,1.70
2023-03-27T04:03:44.393Z,1.80
2023-03-27T04:06:14.347Z,1.30
2023-03-27T04:08:44.797Z,1.40
2023-03-27T04:11:14.634Z,1.83
2023-03-27T04:13:47.046Z,1.40
2023-03-27T04:16:17.021Z,1.40
2023-03-27T04:18:46.936Z,1.30
2023-03-27T04:21:18.092Z,1.60
2023-03-27T04:23:49.430Z,1.60
2023-03-27T04:26:19.391Z,1.40
2023-03-27T04:28:51.963Z,1.00
2023-03-27T04:31:21.788Z,1.33
2023-03-27T04:33:52.460Z,1.00
2023-03-27T04:36:22.814Z,1.60
2023-03-27T04:38:52.741Z,1.03
2023-03-27T04:41:22.649Z,1.17
2023-03-27T04:43:56.079Z,1.10
2023-03-27T04:46:25.962Z,1.10
2023-03-27T04:48:56.670Z,1.20
2023-03-27T04:51:27.180Z,1.47
2023-03-27T04:53:57.467Z,1.20
2023-03-27T04:56:27.444Z,1.00
2023-03-27T04:59:00.540Z,1.33
2023-03-27T05:01:30.453Z,1.20
2023-03-27T05:04:02.648Z,1.10
2023-03-27T05:06:33.133Z,1.37
2023-03-27T05:09:03.551Z,1.40
2023-03-27T05:11:34.560Z,1.47
2023-03-27T05:14:07.264Z,1.97
2023-03-27T05:16:37.266Z,1.40
2023-03-27T05:19:07.327Z,1.20
2023-03-27T05:21:37.450Z,1.30
2023-03-27T05:24:08.232Z,1.23
2023-03-27T05:26:39.448Z,1.40
2023-03-27T05:29:12.328Z,1.17
2023-03-27T05:31:42.135Z,1.10
2023-03-27T05:34:11.987Z,1.23
2023-03-27T05:36:41.784Z,1.40
2023-03-27T05:39:11.562Z,1.20
2023-03-27T05:41:41.592Z,1.43
2023-03-27T05:44:14.032Z,1.60
2023-03-27T05:46:44.013Z,1.30
2023-03-27T05:49:14.170Z,1.60
2023-03-27T05:51:47.139Z,1.60
2023-03-27T05:54:17.365Z,1.70
2023-03-27T05:56:47.195Z,2.00
2023-03-27T05:59:20.681Z,1.50
2023-03-27T06:01:51.112Z,1.57
2023-03-27T06:04:22.478Z,1.90
2023-03-27T06:06:52.302Z,1.50
2023-03-27T06:09:22.129Z,1.47
2023-03-27T06:11:52.213Z,1.13
2023-03-27T06:14:24.654Z,2.00
2023-03-27T06:16:54.846Z,1.80
2023-03-27T06:19:25.034Z,1.60
2023-03-27T06:21:54.907Z,1.70
2023-03-27T06:24:24.779Z,2.50
2023-03-27T06:26:56.461Z,1.60
2023-03-27T06:29:29.809Z,1.67
2023-03-27T06:32:01.931Z,1.90
2023-03-27T06:34:31.706Z,2.00
2023-03-27T06:37:03.822Z,1.93
2023-03-27T06:39:33.610Z,1.53
2023-03-27T06:42:03.650Z,1.67
2023-03-27T06:44:36.245Z,1.70
2023-03-27T06:47:06.659Z,2.27
2023-03-27T06:49:36.565Z,1.60
2023-03-27T06:52:07.074Z,1.90
2023-03-27T06:54:37.047Z,2.30
2023-03-27T06:57:07.014Z,1.80
2023-03-27T06:59:39.464Z,1.90
2023-03-27T07:02:09.807Z,2.27
2023-03-27T07:04:40.832Z,1.57
2023-03-27T07:07:11.521Z,1.37
2023-03-27T07:09:41.474Z,1.40
2023-03-27T07:12:11.958Z,1.63
2023-03-27T07:14:44.476Z,1.70
2023-03-27T07:17:14.581Z,1.80
2023-03-27T07:19:44.486Z,1.23
2023-03-27T07:22:14.449Z,1.10
2023-03-27T07:24:44.304Z,1.20
2023-03-27T07:27:14.398Z,1.00
2023-03-27T07:29:46.982Z,0.80
2023-03-27T07:32:29.785Z,1.37
2023-03-27T07:35:07.108Z,1.20
2023-03-27T07:37:38.289Z,1.00
2023-03-27T07:40:13.453Z,1.37
2023-03-27T07:42:48.633Z,1.03
2023-03-27T07:45:22.771Z,3.10
2023-03-27T07:47:52.673Z,1.20
2023-03-27T07:50:24.652Z,1.37
2023-03-27T07:52:54.471Z,3.23
2023-03-27T07:55:24.343Z,1.67
2023-03-27T07:58:01.562Z,2.00
2023-03-27T08:00:35.722Z,2.10
2023-03-27T08:03:10.237Z,1.80
2023-03-27T08:05:41.000Z,1.70
2023-03-27T08:08:11.315Z,2.10
2023-03-27T08:10:42.100Z,1.70
2023-03-27T08:13:12.852Z,1.80
2023-03-27T08:15:45.424Z,1.60
2023-03-27T08:18:15.363Z,2.27
2023-03-27T08:20:46.016Z,2.20
2023-03-27T08:23:16.638Z,2.40
2023-03-27T08:25:49.343Z,2.20
2023-03-27T08:28:19.224Z,1.60
2023-03-27T08:30:52.090Z,1.40
2023-03-27T08:33:22.490Z,1.40
2023-03-27T08:35:52.902Z,2.90
2023-03-27T08:38:27.048Z,1.80
2023-03-27T08:40:59.509Z,1.30
2023-03-27T08:43:33.551Z,1.70
2023-03-27T08:46:11.712Z,1.60
2023-03-27T08:48:47.356Z,4.27
2023-03-27T08:51:23.030Z,1.47
2023-03-27T08:53:58.477Z,1.70
2023-03-27T08:56:29.056Z,1.60
2023-03-27T08:58:59.036Z,1.10
2023-03-27T09:01:35.749Z,1.30
2023-03-27T09:04:14.682Z,1.23
2023-03-27T09:06:54.872Z,3.47
2023-03-27T09:09:38.917Z,1.77
2023-03-27T09:12:16.888Z,5.20
2023-03-27T09:14:49.613Z,1.77
2023-03-27T09:17:27.470Z,2.03
2023-03-27T09:20:02.139Z,1.50
2023-03-27T09:22:37.146Z,1.90
2023-03-27T09:25:19.326Z,1.50
2023-03-27T09:27:55.159Z,1.63
2023-03-27T09:30:29.791Z,1.80
2023-03-27T09:33:07.575Z,1.57
2023-03-27T09:35:42.495Z,2.00
2023-03-27T09:38:29.932Z,1.90
2023-03-27T09:41:06.872Z,1.23
2023-03-27T09:43:44.496Z,1.60
2023-03-27T09:46:21.002Z,2.00
2023-03-27T09:49:00.658Z,1.67
2023-03-27T09:51:47.698Z,1.57
2023-03-27T09:54:19.252Z,1.90
2023-03-27T09:56:53.526Z,1.83
2023-03-27T09:59:35.579Z,1.90
2023-03-27T10:02:34.626Z,1.60
2023-03-27T10:05:23.376Z,1.20
2023-03-27T10:08:43.219Z,1.20
2023-03-27T10:12:02.096Z,1.60
2023-03-27T10:14:34.851Z,2.10
2023-03-27T10:17:08.284Z,1.40
2023-03-27T10:19:42.633Z,1.17
2023-03-27T10:22:29.175Z,1.40
2023-03-27T10:25:03.788Z,1.50
2023-03-27T10:27:37.210Z,1.40
2023-03-27T10:30:30.505Z,1.53
2023-03-27T10:33:00.488Z,1.40
2023-03-27T10:35:36.708Z,1.30
2023-03-27T10:40:59.366Z,1.70
2023-03-27T10:43:40.903Z,1.30
2023-03-27T10:46:15.299Z,1.70
2023-03-27T10:48:55.269Z,1.63
2023-03-27T10:51:53.271Z,1.70
2023-03-27T10:54:37.323Z,1.83
2023-03-27T10:57:13.211Z,2.17
2023-03-27T10:59:48.544Z,2.00
2023-03-27T11:02:21.983Z,2.33
2023-03-27T11:05:00.026Z,1.60
2023-03-27T11:07:34.139Z,1.40
2023-03-27T11:10:18.302Z,1.70
2023-03-27T11:12:54.013Z,1.63
2023-03-27T11:15:31.130Z,1.43
2023-03-27T11:18:05.911Z,1.30
2023-03-27T11:20:44.419Z,1.40
2023-03-27T11:23:20.564Z,1.27
2023-03-27T11:26:00.209Z,1.53
2023-03-27T11:28:43.037Z,2.00
2023-03-27T11:31:24.809Z,1.50
2023-03-27T11:34:01.128Z,1.17
2023-03-27T11:36:40.098Z,1.33
2023-03-27T11:39:18.315Z,1.43
2023-03-27T11:41:54.716Z,1.80
2023-03-27T11:44:29.610Z,1.90
2023-03-27T11:47:27.154Z,1.30
2023-03-27T11:50:36.753Z,1.40
2023-03-27T11:53:31.735Z,2.13
2023-03-27T11:56:14.057Z,1.87
2023-03-27T11:58:56.896Z,1.70
2023-03-27T12:01:30.963Z,1.63
2023-03-27T12:04:11.613Z,1.43
2023-03-27T12:06:50.389Z,1.10
2023-03-27T12:09:37.813Z,1.50
2023-03-27T12:12:20.749Z,2.03
2023-03-27T12:15:07.681Z,1.60
2023-03-27T12:17:52.839Z,1.20
2023-03-27T12:20:52.768Z,1.80
2023-03-27T12:23:54.126Z,1.57
2023-03-27T12:26:38.280Z,1.70
2023-03-27T12:29:24.584Z,1.70
2023-03-27T12:32:09.916Z,1.33
2023-03-27T12:34:57.071Z,1.63
2023-03-27T12:37:30.267Z,1.50
2023-03-27T12:40:02.404Z,1.20
2023-03-27T12:42:53.208Z,1.30
2023-03-27T12:45:27.713Z,1.70
2023-03-27T12:48:24.331Z,1.70
2023-03-27T12:51:00.063Z,1.70
2023-03-27T12:53:52.810Z,2.30
2023-03-27T12:56:34.250Z,1.60
2023-03-27T12:59:06.561Z,1.43
2023-03-27T13:01:58.419Z,1.50
2023-03-27T13:04:56.707Z,2.23
2023-03-27T13:07:31.648Z,2.47
2023-03-27T13:10:22.685Z,1.83
2023-03-27T13:13:23.454Z,1.60
2023-03-27T13:16:32.894Z,1.37
2023-03-27T13:19:22.357Z,1.70
2023-03-27T13:22:14.928Z,1.30
2023-03-27T13:25:02.941Z,1.63
2023-03-27T13:27:46.988Z,1.70
2023-03-27T13:30:46.054Z,2.00
2023-03-27T13:33:19.539Z,1.97
2023-03-27T13:36:11.761Z,1.83
2023-03-27T13:39:25.066Z,1.80
2023-03-27T13:42:04.648Z,1.67
2023-03-27T13:44:50.013Z,1.70
2023-03-27T13:48:04.056Z,1.80
2023-03-27T13:50:54.959Z,1.60
2023-03-27T13:53:51.349Z,1.77
2023-03-27T13:56:41.326Z,1.30
2023-03-27T13:59:32.588Z,2.00
2023-03-27T14:02:26.402Z,1.80
2023-03-27T14:05:25.263Z,1.53
2023-03-27T14:08:13.691Z,1.40
2023-03-27T14:10:58.071Z,1.60
2023-03-27T14:13:47.661Z,1.50
2023-03-27T14:16:49.949Z,1.60
2023-03-27T14:19:55.542Z,1.63
2023-03-27T14:22:29.441Z,1.77
2023-03-27T14:25:05.563Z,1.30
2023-03-27T14:27:39.637Z,1.00
2023-03-27T14:30:33.341Z,0.90
2023-03-27T14:33:11.697Z,0.90
2023-03-27T14:35:44.476Z,1.00
2023-03-27T14:38:22.548Z,1.70
2023-03-27T14:40:54.881Z,1.00
2023-03-27T14:43:25.128Z,2.27
2023-03-27T14:46:11.825Z,1.30
2023-03-27T14:48:45.327Z,1.60
2023-03-27T14:51:25.264Z,1.60
2023-03-27T14:54:01.481Z,1.10
2023-03-27T14:56:37.451Z,1.53
2023-03-27T14:59:15.780Z,1.30
2023-03-27T15:01:50.003Z,1.47
2023-03-27T15:04:20.754Z,1.73
2023-03-27T15:06:51.018Z,1.50
2023-03-27T15:09:23.831Z,2.17
2023-03-27T15:11:59.374Z,1.60
2023-03-27T15:14:44.106Z,1.67
2023-03-27T15:17:20.420Z,1.90
2023-03-27T15:19:54.493Z,1.63
2023-03-27T15:22:30.058Z,1.63
2023-03-27T15:25:09.005Z,2.03
2023-03-27T15:27:43.832Z,1.43
2023-03-27T15:30:28.369Z,2.17
2023-03-27T15:33:09.138Z,1.70
2023-03-27T15:35:42.072Z,1.50
2023-03-27T15:38:19.908Z,1.33
2023-03-27T15:40:49.836Z,1.33
2023-03-27T15:43:25.904Z,1.77
2023-03-27T15:46:17.300Z,1.80
2023-03-27T15:48:56.631Z,1.53
2023-03-27T15:51:43.676Z,1.40
2023-03-27T15:54:28.349Z,1.80
2023-03-27T15:57:10.657Z,2.00
2023-03-27T15:59:51.843Z,1.77
2023-03-27T16:02:28.380Z,2.03
2023-03-27T16:05:02.180Z,1.80
2023-03-27T16:07:47.438Z,1.97
2023-03-27T16:10:31.200Z,1.97
2023-03-27T16:13:04.396Z,1.90
2023-03-27T16:15:37.715Z,1.77
2023-03-27T16:18:23.246Z,1.87
2023-03-27T16:20:55.872Z,2.13
2023-03-27T16:23:25.774Z,2.50
2023-03-27T16:26:07.303Z,1.90
2023-03-27T16:28:52.929Z,1.90
2023-03-27T16:31:24.157Z,2.77
2023-03-27T16:33:55.388Z,2.37
2023-03-27T16:36:34.180Z,2.40
2023-03-27T16:39:10.391Z,1.97
2023-03-27T16:41:40.386Z,2.50
2023-03-27T16:44:12.535Z,2.77
2023-03-27T16:46:42.573Z,2.63
2023-03-27T16:49:15.112Z,2.83
2023-03-27T16:51:47.674Z,2.70
2023-03-27T16:54:20.202Z,2.50
2023-03-27T16:56:52.457Z,2.43
2023-03-27T16:59:22.903Z,2.67
2023-03-27T17:01:52.997Z,2.30
2023-03-27T17:04:22.956Z,2.80
2023-03-27T17:06:58.055Z,2.53
2023-03-27T17:09:27.988Z,2.73
2023-03-27T17:12:00.646Z,2.87
2023-03-27T17:14:30.915Z,3.00
2023-03-27T17:17:00.768Z,2.47
2023-03-27T17:19:34.972Z,2.90
2023-03-27T17:22:07.878Z,2.57
2023-03-27T17:24:49.081Z,3.00
2023-03-27T17:27:26.889Z,2.90
2023-03-27T17:29:58.041Z,2.17
2023-03-27T17:32:30.902Z,2.73
2023-03-27T17:35:01.988Z,2.50
2023-03-27T17:37:34.495Z,3.07
2023-03-27T17:40:27.223Z,2.77
2023-03-27T17:43:08.247Z,2.30
2023-03-27T17:45:46.125Z,2.10
2023-03-27T17:48:16.581Z,2.40
2023-03-27T17:51:01.163Z,2.53
2023-03-27T17:53:39.511Z,2.73
2023-03-27T17:56:10.945Z,3.10
2023-03-27T17:58:42.111Z,2.80
2023-03-27T18:01:19.968Z,5.50
2023-03-27T18:03:53.472Z,2.80
2023-03-27T18:06:23.361Z,3.00
2023-03-27T18:08:55.792Z,3.00
2023-03-27T18:11:26.182Z,2.77
2023-03-27T18:13:56.327Z,2.93
2023-03-27T18:16:46.947Z,3.97
2023-03-27T18:19:18.292Z,3.50
2023-03-27T18:22:00.125Z,2.90
2023-03-27T18:24:32.778Z,2.90
2023-03-27T18:27:11.633Z,3.43
2023-03-27T18:29:55.409Z,2.80
2023-03-27T18:32:27.287Z,4.60
2023-03-27T18:37:43.128Z,2.93
2023-03-27T18:40:29.366Z,2.63
2023-03-27T18:43:14.267Z,2.60
2023-03-27T18:45:44.206Z,2.73
2023-03-27T18:48:25.732Z,2.87
2023-03-27T18:50:58.004Z,3.73
2023-03-27T18:53:51.960Z,2.57
2023-03-27T18:56:24.656Z,2.50
2023-03-27T18:59:00.112Z,3.23
2023-03-27T19:01:44.240Z,3.43
2023-03-27T19:04:26.918Z,2.80
2023-03-27T19:06:57.333Z,3.23
2023-03-27T19:09:51.479Z,2.77
2023-03-27T19:12:25.370Z,2.87
2023-03-27T19:17:40.514Z,2.70
2023-03-27T19:20:13.041Z,3.17
2023-03-27T19:22:42.980Z,2.90
2023-03-27T19:25:51.408Z,2.93
2023-03-27T19:28:30.004Z,3.20
2023-03-27T19:31:29.317Z,2.70
2023-03-27T19:37:51.736Z,3.00
2023-03-27T19:41:26.342Z,3.80
2023-03-27T19:44:16.142Z,2.43
2023-03-27T19:47:16.784Z,2.60
2023-03-27T19:49:46.770Z,2.50
2023-03-27T19:52:18.898Z,3.73
2023-03-27T19:55:04.180Z,2.53
2023-03-27T19:57:34.092Z,2.70
2023-03-27T20:00:14.546Z,2.50
2023-03-27T20:02:52.980Z,2.30
2023-03-27T20:08:34.116Z,2.50
2023-03-27T20:11:04.618Z,2.40
2023-03-27T20:14:11.532Z,2.73
2023-03-27T20:17:28.094Z,2.23
2023-03-27T20:20:01.044Z,2.67
2023-03-27T20:22:31.359Z,3.57
2023-03-27T20:25:01.610Z,2.60
2023-03-27T20:27:31.810Z,2.87
2023-03-27T20:30:03.844Z,2.53
2023-03-27T20:32:41.722Z,2.77
2023-03-27T20:35:23.743Z,2.60
2023-03-27T20:37:58.062Z,2.40
2023-03-27T20:40:51.942Z,2.90
2023-03-27T20:43:24.489Z,2.77
2023-03-27T20:45:59.263Z,2.00
2023-03-27T20:48:42.882Z,2.30
2023-03-27T20:51:25.025Z,2.50
2023-03-27T20:53:58.317Z,2.60
2023-03-27T20:56:31.077Z,2.40
2023-03-27T20:59:00.987Z,2.60
2023-03-27T21:01:34.530Z,2.00
2023-03-27T21:04:07.132Z,2.33
2023-03-27T21:06:37.080Z,2.90
2023-03-27T21:09:07.692Z,2.53
2023-03-27T21:11:39.855Z,2.80
2023-03-27T21:14:09.822Z,2.57
2023-03-27T21:16:40.403Z,2.37
2023-03-27T21:19:13.280Z,2.60
2023-03-27T21:21:45.479Z,2.93
2023-03-27T21:24:16.170Z,3.53
2023-03-27T21:26:46.099Z,2.60
2023-03-27T21:29:16.078Z,2.87
2023-03-27T21:31:49.331Z,2.33
2023-03-27T21:34:22.850Z,2.63
2023-03-27T21:36:53.028Z,2.30
2023-03-27T21:39:23.122Z,2.80
2023-03-27T21:41:53.401Z,3.17
2023-03-27T21:44:23.373Z,3.53
2023-03-27T21:46:53.393Z,2.43
2023-03-27T21:49:28.806Z,2.50
2023-03-27T21:51:58.845Z,2.83
2023-03-27T21:54:29.038Z,2.80
2023-03-27T21:57:01.026Z,2.13
2023-03-27T21:59:33.425Z,2.50
2023-03-27T22:02:03.350Z,2.43
2023-03-27T22:04:37.104Z,2.50
2023-03-27T22:07:09.010Z,2.40
2023-03-27T22:09:38.915Z,2.77
2023-03-27T22:12:11.514Z,3.00
2023-03-27T22:14:45.358Z,2.37
2023-03-27T22:17:15.876Z,2.53
2023-03-27T22:19:56.246Z,2.50
2023-03-27T22:22:26.369Z,2.50
2023-03-27T22:24:56.443Z,2.50
2023-03-27T22:27:35.471Z,2.27
2023-03-27T22:30:05.407Z,2.33
2023-03-27T22:32:35.505Z,2.13
2023-03-27T22:35:11.454Z,2.43
2023-03-27T22:37:41.686Z,3.07
2023-03-27T22:40:12.512Z,2.40
2023-03-27T22:42:42.271Z,2.80
2023-03-27T22:45:12.950Z,2.57
2023-03-27T22:47:44.182Z,3.43
2023-03-27T22:50:16.825Z,2.63
2023-03-27T22:52:53.737Z,2.43
2023-03-27T22:55:23.528Z,2.63
2023-03-27T22:57:53.298Z,2.30
2023-03-27T23:00:28.503Z,2.20
2023-03-27T23:03:02.355Z,2.80
2023-03-27T23:05:44.239Z,2.37
2023-03-27T23:08:14.431Z,2.07
2023-03-27T23:10:44.384Z,1.60
2023-03-27T23:13:14.852Z,2.53
2023-03-27T23:15:46.245Z,2.00
2023-03-27T23:18:16.047Z,2.80
2023-03-27T23:20:48.447Z,2.20
2023-03-27T23:23:18.253Z,2.33
2023-03-27T23:25:52.689Z,1.73
2023-03-27T23:28:30.599Z,2.20
2023-03-27T23:31:02.377Z,1.90
2023-03-27T23:33:36.747Z,2.27
2023-03-27T23:36:13.313Z,2.20
2023-03-27T23:38:43.603Z,2.63
2023-03-27T23:41:16.478Z,2.20
2023-03-27T23:43:48.261Z,2.37
2023-03-27T23:46:18.972Z,2.23
2023-03-27T23:48:52.544Z,3.00
2023-03-27T23:51:25.236Z,2.43
2023-03-27T23:53:55.109Z,2.23
2023-03-27T23:56:32.356Z,2.07
2023-03-27T23:59:08.327Z,1.97
